KORE Airport (Orange Muni) Information

FAA: ORE - ICAO: KORE

KORE Airport Location

State Massachusetts
County Franklin
City Orange
KORE Airport is 1 miles southeast of Orange, MA.
Latitude 42-34-11.9910N
Longitude 072-17-18.5920W
Elevation 555ft

KORE Airport METARs

METAR KORE 240952Z AUTO 14010G19KT 9SM -RA SCT029 BKN065 OVC120 22/20 A2997 RMK AO2 RAB06 SLP146 P0001 T02220200
Altimeter 29.97"
Temperature 22.2°C (72.0°F)
Wind 140° at 10KT with gusts to 19KT
Clouds scattered at 2,900ft broken at 6,500ft overcast at 12,000ft
Visibility 9.0mi
Time observed: 2021-09-24T09:52:00Z

KORE Airport Details

Status Operational
Activation April 1940
Ownership Public
Usage Public
Chart NEW YORK
ATC on-site No
Beacon schedule sunset-sunrise
Beacon color clear green

KORE Airport Contacts

Owner TOWN OF ORANGE
Owner address 6 PROSPECT ST, ORANGE, MA 01364
Owner phone 978-544-1100
Manager GID ALAN FISHER
Manager address 123 R PURCHASE ST, MIDDLEBORO, MA 02346
Manager phone 508-947-9339

KORE Airport (Orange Muni) Radio Frequencies

KORE (Airport) Radio Frequencies

UNICOM 122.8
Common traffic advisory frequency (CTAF) 122.8